Time;durP1;ratioP1;P1;durP2;ratioP2;P2;SDS_P1;SDS_P2;PMS_P1;PMS_P2;Temp;Humidity;BMP_temperature;BMP_pressure;BME280_temperature;BME280_humidity;BME280_pressure;Samples;Min_cycle;Max_cycle;Signal;HPM_P1;HPM_P2
2022/03/16 00:00:19;;;;;;;18.85;14.30;;;;;;;8.11;80.30;102361.00;5052699;28;20099;-43
2022/03/16 00:02:48;;;;;;;20.50;15.38;;;;;;;8.14;80.79;102357.03;5040299;28;20467;-42
2022/03/16 00:05:16;;;;;;;24.35;17.33;;;;;;;8.15;80.94;102350.53;5033100;28;20054;-43
2022/03/16 00:07:44;;;;;;;20.98;16.63;;;;;;;8.08;80.72;102354.13;5031440;28;20133;-42
2022/03/16 00:10:13;;;;;;;21.83;16.15;;;;;;;7.97;80.57;102362.91;5048931;28;20048;-43
2022/03/16 00:12:42;;;;;;;21.83;15.38;;;;;;;7.95;80.96;102359.56;5050889;28;20404;-42
2022/03/16 00:15:10;;;;;;;19.15;15.35;;;;;;;7.97;81.61;102362.91;5051538;28;20120;-43
2022/03/16 00:17:38;;;;;;;21.45;16.77;;;;;;;7.97;81.10;102365.63;5054352;28;20045;-43
2022/03/16 00:20:07;;;;;;;21.50;16.60;;;;;;;7.93;81.28;102366.25;5037244;28;20119;-42
2022/03/16 00:22:34;;;;;;;20.73;16.40;;;;;;;7.93;81.55;102372.53;5047862;28;20051;-47
2022/03/16 00:25:04;;;;;;;22.85;16.65;;;;;;;7.92;80.39;102365.44;5056161;28;20048;-45
2022/03/16 00:27:33;;;;;;;19.52;16.27;;;;;;;7.82;80.63;102365.03;5056445;28;20045;-47
2022/03/16 00:30:02;;;;;;;21.80;15.70;;;;;;;7.78;81.50;102366.50;5052879;28;20060;-47
2022/03/16 00:32:30;;;;;;;20.83;15.98;;;;;;;7.80;80.61;102361.72;5050711;28;20047;-41
2022/03/16 00:34:57;;;;;;;23.27;17.17;;;;;;;7.76;81.15;102363.16;5056051;28;20514;-41
2022/03/16 00:37:27;;;;;;;21.40;16.13;;;;;;;7.69;81.12;102366.72;5053975;28;20403;-41
2022/03/16 00:39:56;;;;;;;20.27;16.08;;;;;;;7.67;81.19;102367.97;5056247;28;20123;-44
2022/03/16 00:42:23;;;;;;;22.00;17.05;;;;;;;7.65;81.30;102370.91;5042109;28;20040;-45
2022/03/16 00:44:51;;;;;;;22.95;17.25;;;;;;;7.55;81.36;102373.22;5035874;28;20504;-43
2022/03/16 00:47:19;;;;;;;24.73;16.90;;;;;;;7.45;82.02;102370.91;5034688;28;20049;-44
2022/03/16 00:49:49;;;;;;;22.23;15.88;;;;;;;7.44;82.07;102373.84;5053454;28;20044;-45
2022/03/16 00:52:16;;;;;;;20.20;16.67;;;;;;;7.46;81.79;102374.47;5046422;28;20042;-45
2022/03/16 00:54:44;;;;;;;22.65;17.20;;;;;;;7.49;82.92;102376.75;5035640;28;20515;-46
2022/03/16 00:57:12;;;;;;;22.15;16.75;;;;;;;7.53;82.83;102369.88;5037694;28;20041;-45
2022/03/16 00:59:41;;;;;;;20.80;16.13;;;;;;;7.54;82.07;102374.25;5054469;28;20063;-45
2022/03/16 01:02:09;;;;;;;21.58;16.20;;;;;;;7.51;81.81;102369.25;5042994;28;20389;-45
2022/03/16 01:04:37;;;;;;;21.65;15.52;;;;;;;7.52;82.42;102364.66;5035800;28;20124;-45
2022/03/16 01:07:06;;;;;;;21.77;15.75;;;;;;;7.52;81.90;102365.47;5052675;28;20407;-46
2022/03/16 01:09:34;;;;;;;20.90;16.42;;;;;;;7.49;82.02;102360.47;5048488;28;20072;-44
2022/03/16 01:12:03;;;;;;;20.70;16.70;;;;;;;7.41;82.37;102358.81;5035533;28;20041;-46
2022/03/16 01:14:31;;;;;;;19.50;15.60;;;;;;;7.41;83.29;102363.41;5034723;28;20045;-48
2022/03/16 01:16:59;;;;;;;20.35;15.40;;;;;;;7.40;82.41;102364.44;5034304;28;20132;-47
2022/03/16 01:19:28;;;;;;;19.30;15.10;;;;;;;7.33;83.22;102358.19;5046520;28;20086;-46
2022/03/16 01:21:55;;;;;;;21.02;15.05;;;;;;;7.32;82.83;102357.34;5035745;28;20064;-47
2022/03/16 01:24:23;;;;;;;19.17;15.13;;;;;;;7.33;83.39;102352.75;5017061;28;20052;-44
2022/03/16 01:26:51;;;;;;;17.92;13.95;;;;;;;7.34;83.44;102357.16;5034976;28;20397;-46
2022/03/16 01:29:18;;;;;;;20.25;14.77;;;;;;;7.36;83.15;102355.06;5036077;28;20076;-45
2022/03/16 01:31:49;;;;;;;19.10;14.70;;;;;;;7.37;83.01;102356.72;5047804;28;20127;-46
2022/03/16 01:34:16;;;;;;;19.70;13.85;;;;;;;7.35;82.00;102345.25;5054892;28;20045;-47
2022/03/16 01:36:46;;;;;;;18.98;14.38;;;;;;;7.28;82.34;102350.69;5053691;28;20072;-45
2022/03/16 01:39:14;;;;;;;18.20;12.88;;;;;;;7.19;82.74;102352.78;5054188;28;20051;-46
2022/03/16 01:41:42;;;;;;;17.35;13.65;;;;;;;7.14;83.30;102351.72;5035078;28;20514;-46
2022/03/16 01:44:10;;;;;;;19.95;13.55;;;;;;;7.12;83.51;102343.81;5033849;28;20132;-45
2022/03/16 01:46:38;;;;;;;22.60;13.68;;;;;;;7.05;83.53;102342.97;5034766;28;20128;-46
2022/03/16 01:49:06;;;;;;;16.63;13.38;;;;;;;6.98;84.40;102342.13;5043367;28;20407;-45
2022/03/16 01:51:35;;;;;;;16.58;12.27;;;;;;;6.99;84.82;102338.34;5005247;28;20049;-45
2022/03/16 01:54:03;;;;;;;18.10;13.32;;;;;;;6.97;84.77;102327.72;5033172;28;20041;-48
2022/03/16 01:56:31;;;;;;;18.55;12.95;;;;;;;6.94;84.54;102325.44;5017010;28;20483;-48
2022/03/16 01:58:59;;;;;;;17.85;13.32;;;;;;;6.88;84.22;102328.13;5051811;28;20044;-46
2022/03/16 02:01:26;;;;;;;18.30;13.48;;;;;;;6.85;85.09;102320.41;5033700;28;20511;-49
2022/03/16 02:03:54;;;;;;;18.77;13.63;;;;;;;6.89;85.43;102321.69;5010961;28;20099;-46
2022/03/16 02:06:23;;;;;;;18.90;13.82;;;;;;;6.94;85.44;102324.59;5036887;28;20048;-46
2022/03/16 02:08:51;;;;;;;17.52;13.70;;;;;;;6.95;85.47;102315.41;5034499;28;20047;-47
2022/03/16 02:11:19;;;;;;;18.55;13.60;;;;;;;6.99;85.78;102313.97;5042598;28;20052;-44
2022/03/16 02:13:47;;;;;;;17.75;13.20;;;;;;;7.05;85.46;102299.59;5034195;28;20050;-45
2022/03/16 02:16:15;;;;;;;16.92;12.93;;;;;;;7.08;85.84;102299.19;5034329;28;20045;-45
2022/03/16 02:18:43;;;;;;;20.52;14.07;;;;;;;7.13;84.54;102303.97;5047613;28;20472;-46
2022/03/16 02:21:11;;;;;;;18.83;13.52;;;;;;;7.10;84.78;102294.38;5043543;28;20037;-42
2022/03/16 02:23:39;;;;;;;20.48;14.23;;;;;;;7.05;84.75;102305.03;5048510;28;20044;-42
2022/03/16 02:26:07;;;;;;;19.38;14.02;;;;;;;6.93;84.88;102295.84;5052664;28;20044;-42
2022/03/16 02:28:34;;;;;;;19.73;13.60;;;;;;;6.87;85.06;102302.06;5053873;28;20047;-46
2022/03/16 02:31:02;;;;;;;18.88;13.98;;;;;;;6.85;85.70;102304.97;5048243;28;20072;-41
2022/03/16 02:33:30;;;;;;;16.45;13.15;;;;;;;6.85;85.77;102294.16;5042839;28;20036;-42
2022/03/16 02:35:58;;;;;;;17.52;13.32;;;;;;;6.85;85.68;102291.44;5053674;28;20427;-43
2022/03/16 02:38:25;;;;;;;18.85;13.52;;;;;;;6.89;85.70;102294.59;5040083;28;20496;-45
2022/03/16 02:40:53;;;;;;;17.77;12.95;;;;;;;6.91;85.13;102296.03;5016287;28;20045;-45
2022/03/16 02:43:21;;;;;;;16.23;13.02;;;;;;;6.85;85.26;102293.31;5037821;28;20471;-44
2022/03/16 02:45:48;;;;;;;16.20;13.60;;;;;;;6.77;85.48;102288.94;5036426;28;20045;-43
2022/03/16 02:48:16;;;;;;;18.55;13.15;;;;;;;6.71;85.69;102293.31;5033443;28;20041;-44
2022/03/16 02:50:43;;;;;;;15.38;12.20;;;;;;;6.72;86.07;102286.84;5033392;28;20045;-47
2022/03/16 02:53:11;;;;;;;16.73;12.27;;;;;;;6.74;85.55;102292.91;5034017;28;20041;-46
2022/03/16 02:55:46;;;;;;;17.08;12.35;;;;;;;6.73;86.04;102295.81;5053316;28;20056;-46
2022/03/16 02:58:16;;;;;;;17.25;11.85;;;;;;;6.69;86.20;102289.16;5052421;28;20135;-44
2022/03/16 03:00:44;;;;;;;15.80;12.38;;;;;;;6.68;86.24;102293.72;5053372;28;20060;-47
2022/03/16 03:03:12;;;;;;;19.77;12.70;;;;;;;6.66;85.88;102295.78;5043107;28;20068;-45
2022/03/16 03:05:40;;;;;;;21.80;12.63;;;;;;;6.64;85.96;102281.63;5034394;28;20049;-44
2022/03/16 03:08:07;;;;;;;14.73;11.82;;;;;;;6.67;86.70;102275.81;5033674;28;20046;-47
2022/03/16 03:10:35;;;;;;;15.95;12.43;;;;;;;6.73;85.90;102280.38;5033068;28;20045;-46
2022/03/16 03:13:03;;;;;;;16.92;13.13;;;;;;;6.74;85.82;102290.19;5034026;28;20046;-47
2022/03/16 03:15:31;;;;;;;16.67;13.68;;;;;;;6.74;85.61;102284.78;5046623;28;20439;-45
2022/03/16 03:17:58;;;;;;;17.48;12.73;;;;;;;6.69;84.93;102292.69;5052075;28;20048;-46
2022/03/16 03:20:26;;;;;;;15.75;12.40;;;;;;;6.64;85.88;102291.63;5048327;28;20385;-43
2022/03/16 03:22:54;;;;;;;16.58;12.65;;;;;;;6.59;85.79;102284.09;5052092;28;20124;-42
2022/03/16 03:25:22;;;;;;;15.77;12.05;;;;;;;6.51;85.88;102281.59;5033256;28;20500;-42
2022/03/16 03:27:50;;;;;;;14.98;12.55;;;;;;;6.43;86.63;102279.91;5035758;28;20037;-42
2022/03/16 03:30:17;;;;;;;20.33;12.40;;;;;;;6.50;87.12;102279.94;5053287;28;20044;-46
2022/03/16 03:32:45;;;;;;;18.05;12.70;;;;;;;6.53;86.50;102285.78;5047774;28;20041;-42
2022/03/16 03:35:12;;;;;;;16.42;12.90;;;;;;;6.54;85.93;102279.34;5042533;28;20037;-42
2022/03/16 03:37:40;;;;;;;18.10;12.55;;;;;;;6.55;86.12;102277.44;5053036;28;20048;-41
2022/03/16 03:40:08;;;;;;;15.35;12.98;;;;;;;6.54;85.66;102282.03;5053881;28;20041;-41
2022/03/16 03:42:36;;;;;;;16.33;12.90;;;;;;;6.51;85.90;102281.59;5051703;28;20445;-41
2022/03/16 03:45:04;;;;;;;17.75;13.05;;;;;;;6.51;86.12;102285.13;5050083;28;20045;-41
2022/03/16 03:47:32;;;;;;;15.98;13.27;;;;;;;6.54;86.01;102290.16;5032896;28;20069;-41
2022/03/16 03:49:59;;;;;;;15.45;12.25;;;;;;;6.59;85.93;102289.53;5033007;28;20084;-41
2022/03/16 03:52:27;;;;;;;17.30;13.77;;;;;;;6.59;86.08;102289.53;5041486;28;20041;-41
2022/03/16 03:54:54;;;;;;;15.82;12.38;;;;;;;6.62;85.85;102294.53;5053659;28;20045;-41
2022/03/16 03:57:22;;;;;;;16.05;12.95;;;;;;;6.67;85.11;102292.06;5056721;28;20049;-42
2022/03/16 03:59:49;;;;;;;17.92;13.57;;;;;;;6.66;84.80;102289.53;5057130;28;20057;-42
2022/03/16 04:02:17;;;;;;;16.80;13.30;;;;;;;6.60;85.43;102289.31;5055195;28;20041;-42
2022/03/16 04:04:45;;;;;;;17.23;13.32;;;;;;;6.61;84.96;102298.28;5053205;28;20396;-43
2022/03/16 04:07:13;;;;;;;15.85;12.85;;;;;;;6.62;84.88;102294.53;5057152;28;20079;-43
2022/03/16 04:09:40;;;;;;;17.52;13.02;;;;;;;6.66;84.95;102294.97;5056654;28;20486;-42
2022/03/16 04:12:08;;;;;;;16.23;13.30;;;;;;;6.66;84.35;102297.66;5052321;28;20046;-41
2022/03/16 04:14:36;;;;;;;17.35;14.00;;;;;;;6.57;84.20;102295.16;5036449;28;20049;-43
2022/03/16 04:17:04;;;;;;;17.40;13.35;;;;;;;6.49;84.35;102299.91;5036449;28;20048;-43
2022/03/16 04:19:31;;;;;;;17.15;12.43;;;;;;;6.44;84.83;102289.69;5036162;28;20052;-42
2022/03/16 04:21:59;;;;;;;16.00;13.15;;;;;;;6.45;84.75;102299.50;5036853;28;20049;-42
2022/03/16 04:24:27;;;;;;;16.40;12.82;;;;;;;6.43;84.74;102295.34;5053725;28;20047;-45
2022/03/16 04:26:55;;;;;;;18.83;13.30;;;;;;;6.45;84.39;102293.25;5056199;28;20052;-47
2022/03/16 04:29:22;;;;;;;17.55;13.73;;;;;;;6.39;84.14;102294.88;5053851;28;20052;-45
2022/03/16 04:31:50;;;;;;;15.85;12.82;;;;;;;6.35;85.39;102294.47;5055861;28;20041;-45
2022/03/16 04:34:18;;;;;;;17.85;13.85;;;;;;;6.37;85.23;102300.53;5051194;28;20048;-45
2022/03/16 04:36:45;;;;;;;16.92;13.32;;;;;;;6.42;84.45;102299.88;5036189;28;20045;-45
2022/03/16 04:39:13;;;;;;;17.23;13.30;;;;;;;6.40;84.93;102302.81;5036066;28;20045;-46
2022/03/16 04:41:41;;;;;;;17.38;13.43;;;;;;;6.39;84.69;102301.13;5036162;28;20140;-46
2022/03/16 04:44:09;;;;;;;17.60;13.52;;;;;;;6.30;84.82;102286.13;5035664;28;20050;-45
2022/03/16 04:46:37;;;;;;;18.15;14.38;;;;;;;6.17;85.10;102292.31;5034598;28;20479;-46
2022/03/16 04:49:05;;;;;;;17.55;13.30;;;;;;;6.08;86.05;102293.53;5034835;28;20046;-47
2022/03/16 04:51:33;;;;;;;21.70;14.18;;;;;;;6.11;85.88;102293.16;5035669;28;20068;-47
2022/03/16 04:54:00;;;;;;;16.77;13.00;;;;;;;6.11;86.27;102282.31;5050445;28;20037;-44
2022/03/16 04:56:29;;;;;;;17.25;13.77;;;;;;;6.12;86.19;102283.97;5035791;28;20049;-47
2022/03/16 04:58:56;;;;;;;20.50;13.75;;;;;;;6.03;86.13;102277.06;5035579;28;20045;-48
2022/03/16 05:01:24;;;;;;;18.63;14.20;;;;;;;5.93;87.18;102287.41;5034026;28;20568;-48
2022/03/16 05:03:52;;;;;;;18.40;13.80;;;;;;;5.90;87.55;102280.53;5036797;28;20133;-45
2022/03/16 05:06:20;;;;;;;21.60;14.90;;;;;;;5.95;87.73;102280.78;5035501;28;20136;-47
2022/03/16 05:08:50;;;;;;;17.98;13.90;;;;;;;6.01;87.56;102281.84;5035362;28;20514;-46
2022/03/16 05:11:21;;;;;;;18.27;14.00;;;;;;;6.01;87.31;102273.72;5034169;28;20055;-43
2022/03/16 05:13:49;;;;;;;18.33;13.43;;;;;;;6.11;87.39;102276.06;5034841;28;20049;-48
2022/03/16 05:16:17;;;;;;;18.02;14.48;;;;;;;6.18;86.71;102274.19;5035275;28;20083;-46
2022/03/16 05:18:45;;;;;;;18.60;13.43;;;;;;;6.11;86.46;102273.34;5035366;28;20037;-48
2022/03/16 05:21:14;;;;;;;19.70;14.50;;;;;;;6.03;87.00;102285.19;5035445;28;20054;-47
2022/03/16 05:23:42;;;;;;;17.63;13.57;;;;;;;5.92;87.29;102283.88;5034305;28;20392;-46
2022/03/16 05:26:09;;;;;;;17.23;13.20;;;;;;;5.83;87.74;102287.78;5035148;28;20061;-47
2022/03/16 05:28:37;;;;;;;19.33;13.75;;;;;;;5.79;88.28;102289.19;5034885;28;20055;-47
2022/03/16 05:31:05;;;;;;;19.52;13.38;;;;;;;5.76;88.38;102290.44;5034899;28;20049;-47
2022/03/16 05:33:32;;;;;;;17.73;13.68;;;;;;;5.78;88.58;102297.53;5034993;28;20479;-45
2022/03/16 05:36:00;;;;;;;17.25;13.50;;;;;;;5.74;88.33;102287.09;5034791;28;20055;-47
2022/03/16 05:38:28;;;;;;;18.08;13.35;;;;;;;5.71;88.70;102282.09;5033809;28;20053;-45
2022/03/16 05:40:55;;;;;;;17.58;12.80;;;;;;;5.74;88.81;102280.84;5033782;28;20060;-47
2022/03/16 05:43:23;;;;;;;17.75;12.50;;;;;;;5.71;88.62;102275.84;5034229;28;20037;-46
2022/03/16 05:45:50;;;;;;;17.15;12.98;;;;;;;5.71;89.00;102286.66;5034675;28;20496;-45
2022/03/16 05:48:18;;;;;;;17.55;12.65;;;;;;;5.74;88.92;102272.75;5034453;28;20410;-45
2022/03/16 05:50:46;;;;;;;18.45;12.55;;;;;;;5.74;89.07;102278.16;5034497;28;20043;-47
2022/03/16 05:53:14;;;;;;;14.27;11.40;;;;;;;5.76;88.86;102278.78;5033812;28;20041;-48
2022/03/16 05:55:42;;;;;;;16.20;11.25;;;;;;;5.79;88.66;102275.69;5034321;28;20041;-42
2022/03/16 05:58:10;;;;;;;14.40;10.55;;;;;;;5.81;88.79;102272.78;5033227;28;20507;-46
2022/03/16 06:00:40;;;;;;;13.63;10.30;;;;;;;5.77;88.92;102275.03;5033942;28;20045;-43
2022/03/16 06:03:11;;;;;;;15.60;11.18;;;;;;;5.77;88.83;102280.44;5040911;28;20626;-48
2022/03/16 06:05:39;;;;;;;14.35;10.40;;;;;;;5.79;88.77;102285.66;5053292;28;20476;-46
2022/03/16 06:08:06;;;;;;;14.75;10.02;;;;;;;5.80;88.69;102290.88;5050752;28;20476;-42
2022/03/16 06:10:34;;;;;;;18.00;10.52;;;;;;;5.78;88.95;102287.53;5054117;28;20039;-47
2022/03/16 06:13:03;;;;;;;13.02;8.38;;;;;;;5.80;89.19;102292.72;5047289;28;20040;-44
2022/03/16 06:15:41;;;;;;;13.30;10.32;;;;;;;5.87;89.16;102285.50;5052373;28;20053;-46
2022/03/16 06:18:11;;;;;;;14.75;10.07;;;;;;;5.92;89.00;102300.09;5054245;28;20505;-45
2022/03/16 06:20:39;;;;;;;16.83;10.70;;;;;;;5.83;89.05;102295.88;5033257;28;20132;-48
2022/03/16 06:23:08;;;;;;;16.17;10.60;;;;;;;5.74;89.60;102297.09;5023148;28;20056;-48
2022/03/16 06:25:40;;;;;;;14.23;10.38;;;;;;;5.62;90.64;102293.25;5033793;28;20040;-47
2022/03/16 06:28:08;;;;;;;15.05;10.25;;;;;;;5.64;90.84;102296.63;5016152;28;20049;-49
2022/03/16 06:30:35;;;;;;;14.60;10.07;;;;;;;5.71;90.63;102294.78;5032331;28;20055;-50
2022/03/16 06:33:04;;;;;;;14.50;9.07;;;;;;;5.84;90.04;102299.41;5039668;28;20041;-47
2022/03/16 06:35:32;;;;;;;13.10;8.57;;;;;;;5.91;89.39;102295.72;5053657;28;20542;-47
2022/03/16 06:38:00;;;;;;;15.40;8.88;;;;;;;5.83;89.91;102304.00;5050632;28;20037;-49
2022/03/16 06:40:27;;;;;;;11.40;7.38;;;;;;;5.91;90.26;102301.13;5053333;28;20037;-46
2022/03/16 06:42:59;;;;;;;12.75;8.68;;;;;;;5.94;89.88;102294.50;4349334;28;9999963;-44
2022/03/16 06:45:28;;;;;;;12.70;8.23;;;;;;;6.02;89.67;102298.94;5050463;28;20503;-44
2022/03/16 06:47:57;;;;;;;14.18;7.65;;;;;;;6.06;89.17;102313.72;5050395;28;20285;-50
2022/03/16 06:50:26;;;;;;;12.88;8.00;;;;;;;6.13;89.27;102307.31;5048688;28;20089;-45
2022/03/16 06:52:55;;;;;;;12.18;8.00;;;;;;;6.11;88.77;102308.53;5043973;28;20115;-46
2022/03/16 06:55:23;;;;;;;13.75;8.60;;;;;;;6.06;89.28;102305.59;5034043;28;20438;-47
2022/03/16 06:57:51;;;;;;;13.02;8.07;;;;;;;6.04;89.56;102307.66;5042634;28;20046;-46
2022/03/16 07:00:19;;;;;;;12.18;7.97;;;;;;;6.07;89.49;102299.16;5031053;28;20050;-47
2022/03/16 07:02:52;;;;;;;12.32;7.75;;;;;;;6.04;89.57;102294.13;5039600;28;20048;-47
2022/03/16 07:05:21;;;;;;;13.50;8.35;;;;;;;6.13;89.24;102292.94;5030175;28;20062;-46
2022/03/16 07:07:49;;;;;;;13.70;7.72;;;;;;;6.17;88.94;102296.91;5030055;28;20050;-46
2022/03/16 07:10:18;;;;;;;12.20;7.97;;;;;;;6.20;89.20;102291.06;5028375;28;20520;-46
2022/03/16 07:12:45;;;;;;;12.57;8.25;;;;;;;6.26;88.98;102279.47;5037163;28;20053;-48
2022/03/16 07:15:13;;;;;;;21.30;8.30;;;;;;;6.28;88.79;102288.22;5046523;28;20040;-44
2022/03/16 07:17:41;;;;;;;11.30;6.30;;;;;;;6.38;89.43;102291.34;5029912;28;20053;-49
2022/03/16 07:20:09;;;;;;;12.07;7.43;;;;;;;6.45;88.23;102282.44;5029760;28;20194;-48
2022/03/16 07:22:37;;;;;;;10.82;6.43;;;;;;;6.47;89.50;102280.34;5040176;28;20495;-49
2022/03/16 07:25:20;;;;;;;13.18;7.25;;;;;;;6.53;89.13;102276.81;5048479;28;20049;-46
2022/03/16 07:27:49;;;;;;;12.93;7.65;;;;;;;6.51;88.31;102265.34;5030572;28;20079;-51
2022/03/16 07:30:18;;;;;;;12.95;8.05;;;;;;;6.64;87.92;102261.81;5047524;28;20110;-49
2022/03/16 07:32:46;;;;;;;12.68;8.18;;;;;;;6.63;87.99;102258.28;5035173;28;20080;-48
2022/03/16 07:35:14;;;;;;;11.15;6.18;;;;;;;6.63;88.30;102252.03;5030840;28;20063;-49
2022/03/16 07:37:46;;;;;;;12.00;7.60;;;;;;;6.69;87.95;102241.22;5028177;28;20053;-46
2022/03/16 07:40:14;;;;;;;13.43;7.55;;;;;;;6.67;88.13;102243.31;5037231;28;20148;-47
2022/03/16 07:42:46;;;;;;;13.60;7.80;;;;;;;6.66;88.12;102238.91;5035016;28;20056;-47
2022/03/16 07:45:15;;;;;;;13.45;7.22;;;;;;;6.74;88.50;102243.31;5029755;28;20053;-48
2022/03/16 07:47:43;;;;;;;12.88;8.07;;;;;;;6.80;87.75;102242.47;5028198;28;20574;-47
2022/03/16 07:50:11;;;;;;;12.35;6.88;;;;;;;6.88;88.50;102250.41;5031646;28;20045;-51
2022/03/16 07:52:39;;;;;;;12.45;8.68;;;;;;;6.93;86.91;102236.25;5040189;28;20507;-49
2022/03/16 07:55:08;;;;;;;8.18;4.47;;;;;;;6.98;89.29;102239.16;5029568;28;20492;-50
2022/03/16 07:57:36;;;;;;;12.52;7.43;;;;;;;7.01;87.38;102234.13;5029946;28;20045;-49
2022/03/16 08:00:06;;;;;;;14.98;8.48;;;;;;;7.05;86.93;102237.28;5015141;28;20124;-48
2022/03/16 08:02:34;;;;;;;11.35;7.38;;;;;;;7.08;87.18;102242.25;5031526;28;20046;-49
2022/03/16 08:05:02;;;;;;;15.27;8.45;;;;;;;7.11;87.37;102235.59;5032161;28;20041;-46
2022/03/16 08:07:30;;;;;;;11.90;7.80;;;;;;;7.15;86.49;102243.09;5031195;28;20045;-49
2022/03/16 08:09:58;;;;;;;15.77;7.05;;;;;;;7.26;86.97;102228.06;5037397;28;20041;-50
2022/03/16 08:12:26;;;;;;;9.32;6.20;;;;;;;7.32;86.49;102231.81;5049051;28;20045;-50
2022/03/16 08:14:55;;;;;;;10.93;7.10;;;;;;;7.32;85.66;102229.09;5032438;28;20045;-49
2022/03/16 08:17:23;;;;;;;11.30;8.13;;;;;;;7.40;85.98;102218.84;5031059;28;20047;-48
2022/03/16 08:19:51;;;;;;;11.10;6.45;;;;;;;7.40;85.33;102223.44;5033528;28;20045;-47
2022/03/16 08:22:44;;;;;;;9.90;6.60;;;;;;;7.49;85.68;102224.88;5032453;28;20045;-48
2022/03/16 08:25:12;;;;;;;14.45;9.98;;;;;;;7.47;85.39;102226.97;5037606;28;20088;-44
2022/03/16 08:27:40;;;;;;;14.00;10.05;;;;;;;7.51;84.27;102232.81;5051037;28;20052;-43
2022/03/16 08:30:09;;;;;;;11.45;7.53;;;;;;;7.59;84.31;102240.72;5050172;28;20064;-44
2022/03/16 08:32:37;;;;;;;15.18;8.45;;;;;;;7.68;84.78;102245.69;5050345;28;20044;-45
2022/03/16 08:35:06;;;;;;;15.45;10.10;;;;;;;7.68;83.50;102234.84;5051860;28;20127;-48
2022/03/16 08:37:34;;;;;;;13.40;9.65;;;;;;;7.61;83.88;102236.75;5053655;28;20073;-47
2022/03/16 08:40:04;;;;;;;18.08;11.13;;;;;;;7.62;83.47;102241.09;5051371;28;20105;-49
2022/03/16 08:42:32;;;;;;;14.38;10.52;;;;;;;7.65;83.60;102239.88;5034486;28;20045;-47
2022/03/16 08:45:01;;;;;;;24.65;10.95;;;;;;;7.64;83.64;102236.31;5035653;28;20043;-46
2022/03/16 08:47:29;;;;;;;17.33;9.60;;;;;;;7.74;83.02;102229.59;5035929;28;20033;-47
2022/03/16 08:49:56;;;;;;;17.63;11.93;;;;;;;7.76;82.46;102224.78;5035786;28;20073;-45
2022/03/16 08:52:24;;;;;;;18.55;11.05;;;;;;;7.83;82.70;102221.00;5035630;28;20499;-43
2022/03/16 08:54:52;;;;;;;18.95;11.10;;;;;;;7.86;82.19;102231.44;5034065;28;20049;-42
2022/03/16 08:57:21;;;;;;;22.33;11.93;;;;;;;7.87;81.81;102227.66;5033784;28;20044;-43
2022/03/16 08:59:50;;;;;;;15.40;10.52;;;;;;;7.91;82.19;102230.78;5035796;28;20455;-48
2022/03/16 09:02:17;;;;;;;16.95;11.93;;;;;;;7.96;81.12;102236.41;5034193;28;20041;-46
2022/03/16 09:04:45;;;;;;;16.88;11.40;;;;;;;8.02;81.66;102223.84;5035447;28;20038;-47
2022/03/16 09:07:13;;;;;;;16.52;10.95;;;;;;;8.07;80.75;102230.28;5035186;28;20053;-45
2022/03/16 09:09:41;;;;;;;18.88;11.25;;;;;;;8.10;81.16;102224.44;5033821;28;20067;-47
2022/03/16 09:12:09;;;;;;;19.50;13.43;;;;;;;8.14;80.31;102221.28;5035359;28;20377;-46
2022/03/16 09:14:39;;;;;;;18.63;12.60;;;;;;;8.17;80.31;102231.69;5034198;28;20132;-48
2022/03/16 09:17:10;;;;;;;18.85;12.07;;;;;;;8.22;80.83;102234.59;5033983;28;20080;-44
2022/03/16 09:19:38;;;;;;;17.65;11.55;;;;;;;8.27;80.83;102232.06;5035383;28;20050;-48
2022/03/16 09:22:06;;;;;;;17.35;12.38;;;;;;;8.32;79.84;102233.09;5034774;28;20052;-45
2022/03/16 09:24:34;;;;;;;17.25;11.77;;;;;;;8.36;79.14;102225.31;5033786;28;20553;-44
2022/03/16 09:27:02;;;;;;;19.42;12.20;;;;;;;8.42;78.21;102223.63;5034960;28;20107;-45
2022/03/16 09:29:30;;;;;;;17.88;11.77;;;;;;;8.47;78.02;102208.38;5033404;28;20049;-43
2022/03/16 09:32:07;;;;;;;17.42;11.65;;;;;;;8.48;78.18;102217.34;5009093;28;20092;-42
2022/03/16 09:34:36;;;;;;;18.10;12.07;;;;;;;8.53;77.99;102218.34;4296359;28;10000708;-48
2022/03/16 09:37:04;;;;;;;19.55;12.70;;;;;;;8.57;77.64;102226.06;4992132;28;20834;-47
2022/03/16 09:39:32;;;;;;;14.77;12.23;;;;;;;8.55;77.15;102218.13;5004862;28;20121;-47
2022/03/16 09:42:00;;;;;;;16.85;11.65;;;;;;;8.59;77.25;102221.25;5009853;28;20039;-48
2022/03/16 09:44:32;;;;;;;17.42;11.60;;;;;;;8.64;77.07;102210.56;5010445;28;20050;-48
2022/03/16 09:47:01;;;;;;;17.85;12.43;;;;;;;8.68;76.79;102203.59;5010071;28;20076;-51
2022/03/16 09:49:29;;;;;;;16.77;11.68;;;;;;;8.74;76.84;102202.72;5010347;28;20042;-47
2022/03/16 09:51:59;;;;;;;19.73;14.05;;;;;;;8.74;75.88;102211.69;5011933;28;20060;-49
2022/03/16 09:54:27;;;;;;;14.93;11.48;;;;;;;8.80;76.18;102209.97;5011572;28;20045;-51
2022/03/16 09:56:56;;;;;;;17.08;11.95;;;;;;;8.84;75.83;102211.19;5010481;28;20056;-49
2022/03/16 09:59:23;;;;;;;17.85;11.93;;;;;;;8.88;76.30;102208.88;5011136;28;20076;-44
2022/03/16 10:02:09;;;;;;;18.27;11.80;;;;;;;8.88;75.81;102217.88;5013086;28;20564;-46
2022/03/16 10:04:39;;;;;;;16.98;11.85;;;;;;;8.91;75.67;102219.31;4997138;28;20073;-43
2022/03/16 10:07:06;;;;;;;15.60;8.75;;;;;;;8.94;75.78;102210.69;5012872;28;20096;-43
2022/03/16 10:15:12;;;;;;;20.23;10.63;;;;;;;9.07;74.99;102204.31;5013058;28;20126;-49
2022/03/16 10:17:48;;;;;;;14.82;10.90;;;;;;;9.11;74.30;102198.19;5014335;28;20378;-47
2022/03/16 10:20:22;;;;;;;14.35;11.40;;;;;;;9.13;74.62;102203.41;5013223;28;20041;-45
2022/03/16 10:23:14;;;;;;;15.00;10.48;;;;;;;9.16;74.73;102211.13;5014560;28;20468;-48
2022/03/16 10:25:45;;;;;;;15.95;11.32;;;;;;;9.26;75.09;102206.00;5010947;28;20112;-47
2022/03/16 10:28:33;;;;;;;19.38;11.82;;;;;;;9.25;74.51;102198.91;4997047;28;20076;-48
2022/03/16 10:31:08;;;;;;;17.05;11.60;;;;;;;9.25;74.65;102200.78;5025000;28;20400;-44
2022/03/16 10:33:49;;;;;;;13.80;10.50;;;;;;;9.27;75.07;102195.97;5033997;28;20033;-46
2022/03/16 10:36:20;;;;;;;14.57;11.50;;;;;;;9.32;74.44;102210.53;5033607;28;20048;-49
2022/03/16 10:38:52;;;;;;;17.48;11.20;;;;;;;9.36;74.43;102206.31;5033660;28;20570;-47
2022/03/16 10:47:02;;;;;;;14.88;11.48;;;;;;;9.41;74.90;102196.66;5033829;28;20188;-48
2022/03/16 10:49:34;;;;;;;14.60;11.07;;;;;;;9.44;74.69;102198.91;5033202;28;20034;-48
2022/03/16 10:52:15;;;;;;;16.27;12.30;;;;;;;9.45;75.04;102200.56;5030539;28;20047;-46
2022/03/16 10:54:44;;;;;;;14.85;11.95;;;;;;;9.44;74.82;102198.91;5033336;28;20127;-46
2022/03/16 10:57:13;;;;;;;16.40;11.73;;;;;;;9.55;74.84;102195.44;5038394;28;20044;-48
2022/03/16 10:59:43;;;;;;;14.85;11.45;;;;;;;9.65;74.55;102194.91;5049084;28;20498;-46
2022/03/16 11:02:13;;;;;;;16.30;12.95;;;;;;;9.67;74.66;102177.28;5042901;28;20037;-49
2022/03/16 11:04:45;;;;;;;16.42;12.48;;;;;;;9.67;74.33;102185.47;5033216;28;20480;-47
2022/03/16 11:07:13;;;;;;;15.45;12.52;;;;;;;9.68;74.81;102175.41;5035019;28;20129;-47
2022/03/16 11:09:41;;;;;;;15.68;12.55;;;;;;;9.69;74.60;102175.19;5031837;28;20037;-49
2022/03/16 11:15:05;;;;;;;19.65;14.07;;;;;;;9.90;74.31;102171.13;5033173;28;20038;-48
2022/03/16 11:17:37;;;;;;;18.40;12.73;;;;;;;10.01;73.57;102183.13;5044531;28;20045;-49
2022/03/16 11:20:08;;;;;;;17.25;12.70;;;;;;;10.12;73.92;102178.78;5053193;28;20040;-46
2022/03/16 11:26:00;;;;;;;18.05;12.55;;;;;;;10.21;73.24;102161.03;5046852;28;20055;-45
2022/03/16 11:28:42;;;;;;;15.63;11.70;;;;;;;10.21;73.22;102167.31;5033877;28;20132;-47
2022/03/16 11:31:14;;;;;;;19.65;13.15;;;;;;;10.16;73.35;102164.47;5031487;28;20063;-45
2022/03/16 11:33:49;;;;;;;13.68;9.75;;;;;;;10.19;75.55;102174.88;5033630;28;20076;-48
2022/03/16 11:36:42;;;;;;;15.80;12.80;;;;;;;10.24;73.34;102172.28;5031957;28;20045;-46
2022/03/16 11:39:19;;;;;;;16.13;12.25;;;;;;;10.30;73.04;102172.47;5030989;28;20103;-46
2022/03/16 11:41:55;;;;;;;16.27;12.80;;;;;;;10.26;73.28;102171.25;5031879;28;20140;-48
2022/03/16 11:44:29;;;;;;;17.60;12.52;;;;;;;10.25;73.51;102178.59;5047597;28;20059;-46